Time;durP1;ratioP1;P1;durP2;ratioP2;P2;SDS_P1;SDS_P2;PMS_P1;PMS_P2;Temp;Humidity;BMP_temperature;BMP_pressure;BME280_temperature;BME280_humidity;BME280_pressure;Samples;Min_cycle;Max_cycle;Signal;HPM_P1;HPM_P2
2024/01/07 00:00:18;;;;;;;13.37;9.97;;;4.80;99.90;;;;;;5033348;28;20206;-76
2024/01/07 00:02:45;;;;;;;12.77;9.83;;;4.80;99.90;;;;;;5033541;28;20221;-76
2024/01/07 00:05:12;;;;;;;14.00;10.17;;;4.80;99.90;;;;;;5033891;28;20220;-76
2024/01/07 00:07:41;;;;;;;13.57;9.87;;;4.80;99.90;;;;;;5033107;28;20263;-76
2024/01/07 00:10:09;;;;;;;13.07;10.20;;;4.80;99.90;;;;;;5033506;28;20208;-76
2024/01/07 00:12:37;;;;;;;14.23;10.60;;;4.80;99.90;;;;;;5032788;28;20220;-76
2024/01/07 00:15:05;;;;;;;13.77;10.63;;;4.50;99.90;;;;;;5046858;28;20205;-76
2024/01/07 00:17:32;;;;;;;14.13;10.73;;;4.50;99.90;;;;;;5048213;28;20569;-76
2024/01/07 00:20:00;;;;;;;13.37;11.27;;;4.50;99.90;;;;;;5033432;28;20202;-76
2024/01/07 00:22:27;;;;;;;14.80;11.27;;;4.60;99.90;;;;;;5022205;28;20227;-76
2024/01/07 00:24:56;;;;;;;14.33;10.70;;;4.40;99.90;;;;;;5043278;28;20214;-76
2024/01/07 00:27:24;;;;;;;13.60;10.30;;;4.30;99.90;;;;;;5028915;28;20198;-76
2024/01/07 00:29:54;;;;;;;13.20;9.90;;;4.20;99.90;;;;;;5029761;28;20195;-76
2024/01/07 00:32:25;;;;;;;16.77;11.33;;;4.30;99.90;;;;;;5032758;28;20241;-76
2024/01/07 00:34:53;;;;;;;13.93;10.80;;;4.10;99.90;;;;;;5033531;28;20191;-76
2024/01/07 00:37:20;;;;;;;12.73;10.13;;;4.00;99.90;;;;;;5031355;28;20195;-76
2024/01/07 00:39:48;;;;;;;13.73;11.03;;;4.30;99.90;;;;;;5032779;28;20196;-76
2024/01/07 00:42:16;;;;;;;13.47;10.57;;;4.30;99.90;;;;;;5026479;28;20215;-76
2024/01/07 00:44:44;;;;;;;13.77;9.70;;;4.20;99.90;;;;;;5049457;28;20218;-76
2024/01/07 00:47:11;;;;;;;14.63;10.50;;;4.40;99.90;;;;;;5032731;28;20204;-76
2024/01/07 00:49:40;;;;;;;14.70;11.30;;;4.30;99.90;;;;;;5032932;28;20204;-76
2024/01/07 00:52:07;;;;;;;15.43;10.50;;;4.50;99.90;;;;;;5032282;28;20234;-76
2024/01/07 00:54:34;;;;;;;14.23;11.27;;;4.60;99.90;;;;;;5049484;28;20199;-76
2024/01/07 00:57:02;;;;;;;15.07;10.77;;;4.40;99.90;;;;;;5048643;28;20293;-76
2024/01/07 00:59:31;;;;;;;15.10;10.97;;;4.60;99.90;;;;;;5049516;28;20201;-76
2024/01/07 01:01:58;;;;;;;15.17;10.87;;;4.60;99.90;;;;;;5049567;28;20272;-76
2024/01/07 01:04:25;;;;;;;17.03;11.93;;;4.50;99.90;;;;;;5029435;28;20195;-76
2024/01/07 01:06:53;;;;;;;15.73;11.70;;;4.40;99.90;;;;;;5028411;28;20210;-76
2024/01/07 01:09:20;;;;;;;15.17;10.57;;;4.20;99.90;;;;;;5049122;28;20202;-76
2024/01/07 01:11:49;;;;;;;15.47;11.47;;;4.30;99.90;;;;;;5032831;28;20571;-76
2024/01/07 01:14:17;;;;;;;14.73;11.20;;;4.40;99.90;;;;;;5032871;28;20653;-76
2024/01/07 01:16:45;;;;;;;16.60;11.53;;;4.30;99.90;;;;;;5033670;28;20205;-76
2024/01/07 01:19:13;;;;;;;15.30;11.37;;;4.30;99.90;;;;;;5032710;28;20203;-76
2024/01/07 01:21:40;;;;;;;15.23;10.97;;;4.50;99.90;;;;;;5058158;23;20224;-76
2024/01/07 01:24:07;;;;;;;15.50;10.80;;;4.50;99.90;;;;;;5036371;28;20552;-76
2024/01/07 01:26:35;;;;;;;16.20;11.13;;;4.60;99.90;;;;;;5046705;28;20207;-77
2024/01/07 01:29:02;;;;;;;13.83;11.37;;;4.40;99.90;;;;;;5035473;28;20200;-77
2024/01/07 01:31:30;;;;;;;15.70;11.80;;;4.30;99.90;;;;;;5035427;28;20195;-76
2024/01/07 01:33:58;;;;;;;17.67;12.53;;;4.40;99.90;;;;;;5032987;28;20202;-76
2024/01/07 01:36:26;;;;;;;16.13;12.13;;;4.40;99.90;;;;;;5035472;28;20211;-76
2024/01/07 01:38:53;;;;;;;16.93;12.10;;;4.40;99.90;;;;;;5035447;28;20199;-76
2024/01/07 01:41:21;;;;;;;16.07;11.20;;;4.20;99.90;;;;;;5032132;28;20207;-76
2024/01/07 01:43:48;;;;;;;17.43;12.70;;;4.40;99.90;;;;;;5035464;28;20225;-76
2024/01/07 01:46:16;;;;;;;15.27;11.90;;;4.40;99.90;;;;;;5036152;28;20217;-79
2024/01/07 01:48:44;;;;;;;16.43;12.23;;;4.50;99.90;;;;;;5047472;28;20197;-79
2024/01/07 01:51:13;;;;;;;17.23;11.47;;;4.40;99.90;;;;;;5040847;28;20200;-79
2024/01/07 01:53:41;;;;;;;15.00;11.73;;;4.20;99.90;;;;;;5042464;28;20202;-79
2024/01/07 01:56:09;;;;;;;17.80;12.70;;;4.20;99.90;;;;;;5039511;28;20212;-79
2024/01/07 01:58:36;;;;;;;18.53;13.00;;;4.30;99.90;;;;;;5050179;28;20779;-79
2024/01/07 02:01:05;;;;;;;14.83;11.00;;;4.30;99.90;;;;;;5050501;28;20198;-79
2024/01/07 02:03:32;;;;;;;15.23;11.57;;;4.20;99.90;;;;;;5048821;28;20223;-79
2024/01/07 02:06:00;;;;;;;14.07;11.07;;;4.00;99.90;;;;;;5045835;28;20229;-79
2024/01/07 02:08:30;;;;;;;16.33;11.37;;;4.00;99.90;;;;;;5047469;28;20199;-79
2024/01/07 02:10:58;;;;;;;15.00;12.03;;;4.10;99.90;;;;;;5033427;28;20206;-79
2024/01/07 02:13:25;;;;;;;16.80;11.67;;;4.20;99.90;;;;;;5068363;28;20352;-79
2024/01/07 02:15:53;;;;;;;14.93;11.37;;;4.30;99.90;;;;;;5073014;28;20200;-79
2024/01/07 02:18:20;;;;;;;17.83;12.73;;;4.00;99.90;;;;;;5058265;28;20184;-79
2024/01/07 02:20:48;;;;;;;16.27;12.30;;;4.10;99.90;;;;;;5032290;28;20583;-79
2024/01/07 02:23:15;;;;;;;14.00;10.97;;;4.10;99.90;;;;;;5044688;28;20217;-79
2024/01/07 02:25:44;;;;;;;15.20;11.23;;;4.00;99.90;;;;;;5044557;28;20672;-79
2024/01/07 02:28:11;;;;;;;16.00;11.70;;;4.10;99.90;;;;;;5042072;28;20198;-79
2024/01/07 02:30:39;;;;;;;16.20;12.73;;;4.10;99.90;;;;;;5062877;28;20195;-79
2024/01/07 02:33:06;;;;;;;17.80;12.37;;;4.00;99.90;;;;;;5050798;28;20682;-79
2024/01/07 02:35:34;;;;;;;17.90;12.70;;;4.00;99.90;;;;;;5048483;28;20188;-79
2024/01/07 02:38:01;;;;;;;13.57;11.07;;;3.90;99.90;;;;;;5038271;28;20200;-79
2024/01/07 02:40:29;;;;;;;14.43;10.57;;;4.00;99.90;;;;;;5060003;28;20200;-79
2024/01/07 02:42:58;;;;;;;14.93;11.33;;;4.00;99.90;;;;;;5044062;28;20709;-79
2024/01/07 02:45:25;;;;;;;15.00;12.17;;;3.80;99.90;;;;;;5044325;28;20205;-79
2024/01/07 02:47:53;;;;;;;15.50;11.87;;;3.90;99.90;;;;;;5036916;28;20202;-79
2024/01/07 02:50:23;;;;;;;15.20;11.60;;;3.80;99.90;;;;;;5043380;28;20773;-79
2024/01/07 02:52:50;;;;;;;16.37;12.43;;;3.80;99.90;;;;;;5046762;28;20233;-79
2024/01/07 02:55:18;;;;;;;16.03;12.73;;;3.70;99.90;;;;;;5069030;28;20208;-79
2024/01/07 02:57:45;;;;;;;16.03;12.23;;;3.80;99.90;;;;;;5041599;28;20562;-79
2024/01/07 03:00:15;;;;;;;16.17;11.80;;;3.80;99.90;;;;;;5061653;28;20188;-79
2024/01/07 03:02:42;;;;;;;17.60;12.20;;;3.70;99.90;;;;;;5059544;28;20224;-79
2024/01/07 03:05:10;;;;;;;15.20;11.67;;;3.80;99.90;;;;;;5076685;28;20184;-79
2024/01/07 03:07:39;;;;;;;15.00;12.60;;;3.80;99.90;;;;;;5057239;28;20685;-79
2024/01/07 03:10:07;;;;;;;15.37;11.67;;;3.80;99.90;;;;;;5056308;28;20190;-79
2024/01/07 03:12:35;;;;;;;15.40;12.03;;;3.90;99.90;;;;;;5055354;28;20212;-79
2024/01/07 03:15:02;;;;;;;13.63;11.40;;;3.80;99.90;;;;;;5049450;28;20312;-79
2024/01/07 03:17:32;;;;;;;15.00;11.50;;;3.90;99.90;;;;;;5057010;28;20198;-79
2024/01/07 03:19:59;;;;;;;13.97;11.43;;;3.70;99.90;;;;;;5055803;28;20205;-79
2024/01/07 03:22:27;;;;;;;15.03;11.30;;;3.70;99.90;;;;;;5055075;28;20231;-79
2024/01/07 03:24:54;;;;;;;16.33;12.63;;;3.80;99.90;;;;;;5054338;28;20203;-79
2024/01/07 03:27:21;;;;;;;13.07;11.13;;;3.90;99.90;;;;;;5042991;28;20209;-79
2024/01/07 03:29:49;;;;;;;14.80;11.10;;;4.00;99.90;;;;;;5056663;28;20194;-79
2024/01/07 03:32:16;;;;;;;13.30;11.00;;;4.00;99.90;;;;;;5054725;28;20301;-79
2024/01/07 03:34:45;;;;;;;13.70;11.37;;;3.90;99.90;;;;;;5051482;28;20198;-79
2024/01/07 03:37:12;;;;;;;10.83;9.57;;;3.70;99.90;;;;;;5071458;28;20190;-79
2024/01/07 03:39:40;;;;;;;14.00;10.77;;;3.70;99.90;;;;;;5044995;28;20198;-77
2024/01/07 03:42:11;;;;;;;14.03;11.30;;;3.80;99.90;;;;;;5040346;28;20233;-77
2024/01/07 03:44:39;;;;;;;13.63;10.87;;;3.90;99.90;;;;;;5045229;28;20198;-77
2024/01/07 03:47:07;;;;;;;13.00;10.60;;;4.00;99.90;;;;;;5038898;28;20214;-77
2024/01/07 03:49:36;;;;;;;13.37;10.53;;;3.80;99.90;;;;;;5040489;28;20211;-77
2024/01/07 03:52:06;;;;;;;13.00;10.40;;;3.60;99.90;;;;;;5059127;28;20221;-77
2024/01/07 03:54:34;;;;;;;12.40;10.23;;;3.60;99.90;;;;;;5041279;28;20202;-77
2024/01/07 03:57:01;;;;;;;12.83;11.13;;;3.60;99.90;;;;;;5040584;28;20186;-77
2024/01/07 03:59:29;;;;;;;12.37;10.27;;;3.50;99.90;;;;;;5041287;28;20205;-77
2024/01/07 04:01:58;;;;;;;13.43;11.03;;;3.60;99.90;;;;;;5044236;28;20229;-77
2024/01/07 04:04:25;;;;;;;14.00;11.57;;;3.50;99.90;;;;;;5054556;28;20184;-76
2024/01/07 04:06:52;;;;;;;15.20;11.23;;;3.50;99.90;;;;;;5055009;28;20201;-76
2024/01/07 04:09:21;;;;;;;13.03;9.90;;;3.60;99.90;;;;;;5038529;28;20194;-76
2024/01/07 04:11:49;;;;;;;13.60;11.03;;;3.60;99.90;;;;;;5038028;28;20309;-78
2024/01/07 04:14:16;;;;;;;12.30;10.10;;;3.70;99.90;;;;;;5047131;28;20199;-78
2024/01/07 04:16:44;;;;;;;14.73;11.50;;;3.60;99.90;;;;;;5048258;28;20197;-78
2024/01/07 04:19:11;;;;;;;13.90;11.37;;;3.60;99.90;;;;;;5047302;28;20202;-78
2024/01/07 04:21:38;;;;;;;14.40;11.20;;;3.80;99.90;;;;;;5039250;28;20230;-79
2024/01/07 04:24:06;;;;;;;13.37;10.77;;;3.80;99.90;;;;;;5038980;28;20199;-79
2024/01/07 04:26:35;;;;;;;14.37;10.97;;;3.80;99.90;;;;;;5027125;28;20224;-79
2024/01/07 04:29:02;;;;;;;14.23;12.10;;;3.70;99.90;;;;;;5035505;28;20548;-79
2024/01/07 04:31:31;;;;;;;14.20;11.40;;;3.50;99.90;;;;;;5059755;28;20187;-79
2024/01/07 04:33:58;;;;;;;17.17;11.33;;;3.40;99.90;;;;;;5046749;28;20223;-79
2024/01/07 04:36:26;;;;;;;16.40;12.47;;;3.60;99.90;;;;;;5062496;28;20193;-79
2024/01/07 04:38:55;;;;;;;14.53;11.23;;;3.60;99.90;;;;;;5046101;28;20568;-79
2024/01/07 04:41:24;;;;;;;15.00;11.83;;;3.60;99.90;;;;;;5046560;28;20641;-79
2024/01/07 04:43:53;;;;;;;14.27;10.87;;;3.40;99.90;;;;;;5046148;28;20205;-79
2024/01/07 04:46:20;;;;;;;13.33;10.93;;;3.50;99.90;;;;;;5062102;28;20202;-79
2024/01/07 04:48:48;;;;;;;14.47;11.97;;;3.30;99.90;;;;;;5051224;28;20676;-79
2024/01/07 04:51:15;;;;;;;15.27;12.30;;;3.50;99.90;;;;;;5059483;28;20188;-79
2024/01/07 04:53:43;;;;;;;16.47;11.90;;;3.50;99.90;;;;;;5025590;28;20567;-79
2024/01/07 04:56:10;;;;;;;14.43;10.80;;;3.30;99.90;;;;;;5025314;28;20191;-79
2024/01/07 04:58:37;;;;;;;15.07;12.23;;;3.40;99.90;;;;;;5037612;28;20201;-79
2024/01/07 05:01:06;;;;;;;15.87;11.73;;;3.20;99.90;;;;;;5038875;28;20212;-79
2024/01/07 05:03:35;;;;;;;15.67;12.40;;;3.40;99.90;;;;;;5041322;28;20218;-78
2024/01/07 05:06:03;;;;;;;16.90;12.23;;;3.50;99.90;;;;;;5043446;28;20202;-79
2024/01/07 05:08:30;;;;;;;15.50;12.30;;;3.60;99.90;;;;;;5038453;28;20215;-78
2024/01/07 05:10:58;;;;;;;15.70;11.80;;;3.30;99.90;;;;;;5033950;28;20210;-79
2024/01/07 05:13:25;;;;;;;16.27;12.13;;;3.00;99.90;;;;;;5041693;28;20224;-79
2024/01/07 05:15:54;;;;;;;14.27;11.77;;;3.10;99.90;;;;;;5042910;28;20199;-79
2024/01/07 05:18:23;;;;;;;15.23;12.00;;;3.20;99.90;;;;;;5038950;28;20198;-79
2024/01/07 05:20:51;;;;;;;14.27;11.37;;;3.20;99.90;;;;;;5037724;28;20191;-79
2024/01/07 05:23:19;;;;;;;15.13;11.60;;;3.20;99.90;;;;;;5043511;28;20228;-79
2024/01/07 05:25:47;;;;;;;16.33;11.40;;;3.20;99.90;;;;;;5043446;28;20186;-79
2024/01/07 05:28:19;;;;;;;16.17;12.70;;;3.20;99.90;;;;;;5056732;28;20222;-79
2024/01/07 05:30:46;;;;;;;16.07;12.17;;;3.10;99.90;;;;;;5042746;28;20202;-79
2024/01/07 05:33:13;;;;;;;13.57;11.73;;;3.00;99.90;;;;;;5053142;28;20617;-79
2024/01/07 05:35:43;;;;;;;14.90;12.07;;;3.00;99.90;;;;;;5041674;28;20203;-79
2024/01/07 05:38:11;;;;;;;15.53;12.67;;;3.10;99.90;;;;;;5042174;28;20201;-79
2024/01/07 05:40:38;;;;;;;15.20;11.83;;;2.90;99.90;;;;;;5032518;28;20208;-79
2024/01/07 05:43:06;;;;;;;14.13;12.03;;;3.00;99.90;;;;;;5065662;28;20221;-79
2024/01/07 05:45:33;;;;;;;17.23;13.07;;;3.00;99.90;;;;;;5045342;28;20210;-79
2024/01/07 05:48:02;;;;;;;16.80;11.87;;;2.90;99.90;;;;;;5043966;28;20224;-79
2024/01/07 05:50:29;;;;;;;15.03;12.03;;;2.70;99.90;;;;;;5037163;28;20199;-79
2024/01/07 05:52:58;;;;;;;16.53;11.77;;;2.70;99.90;;;;;;5038864;28;20214;-79
2024/01/07 05:55:25;;;;;;;16.50;12.97;;;2.80;99.90;;;;;;5035206;28;20198;-79
2024/01/07 05:57:52;;;;;;;17.27;12.57;;;2.80;99.90;;;;;;5044171;28;20188;-79
2024/01/07 06:00:20;;;;;;;16.70;11.60;;;2.80;99.90;;;;;;5034912;28;20199;-79
2024/01/07 06:02:47;;;;;;;15.53;12.40;;;2.90;99.90;;;;;;5032259;28;20217;-79
2024/01/07 06:05:15;;;;;;;15.23;12.30;;;3.20;99.90;;;;;;5022271;28;20198;-79
2024/01/07 06:07:42;;;;;;;15.50;12.03;;;3.00;99.90;;;;;;5060638;28;20614;-78
2024/01/07 06:10:11;;;;;;;15.43;12.10;;;3.10;99.90;;;;;;5036776;28;20204;-79
2024/01/07 06:12:42;;;;;;;14.87;12.23;;;3.10;99.90;;;;;;5057441;28;20227;-78
2024/01/07 06:15:10;;;;;;;16.17;11.90;;;3.00;99.90;;;;;;5041577;28;20691;-79
2024/01/07 06:17:37;;;;;;;16.23;12.10;;;3.00;99.90;;;;;;5051380;28;20195;-79
2024/01/07 06:20:06;;;;;;;16.70;12.80;;;3.10;99.90;;;;;;5037568;28;20202;-79
2024/01/07 06:22:33;;;;;;;17.23;12.50;;;2.90;99.90;;;;;;5031678;28;20229;-78
2024/01/07 06:25:01;;;;;;;17.53;12.93;;;2.80;99.90;;;;;;5038965;28;20575;-79
2024/01/07 06:27:29;;;;;;;19.00;13.17;;;2.90;99.90;;;;;;5055357;28;20210;-78
2024/01/07 06:30:32;;;;;;;15.90;12.30;;;3.00;99.90;;;;;;5036540;28;20293;-79
2024/01/07 06:32:59;;;;;;;20.77;12.93;;;2.90;99.90;;;;;;5034693;28;20629;-78
2024/01/07 06:35:27;;;;;;;17.67;13.10;;;2.80;99.90;;;;;;5052230;28;20193;-79
2024/01/07 06:37:54;;;;;;;17.53;12.80;;;2.80;99.90;;;;;;5030406;28;20191;-78
2024/01/07 06:40:22;;;;;;;16.13;12.33;;;2.80;99.90;;;;;;5057856;28;20205;-79
2024/01/07 06:42:51;;;;;;;16.80;13.30;;;2.80;99.90;;;;;;5034808;28;20228;-79
2024/01/07 06:45:19;;;;;;;15.30;11.93;;;2.80;99.90;;;;;;5053292;28;20195;-78
2024/01/07 06:47:46;;;;;;;17.37;12.73;;;2.70;99.90;;;;;;5037761;28;20232;-78
2024/01/07 06:50:43;;;;;;;16.30;11.83;;;2.80;99.90;;;;;;5049325;28;20673;-78
2024/01/07 06:53:11;;;;;;;17.50;13.60;;;3.00;99.90;;;;;;5033889;28;20229;-79
2024/01/07 06:55:38;;;;;;;16.80;12.07;;;3.00;99.90;;;;;;5036234;28;20198;-79
2024/01/07 06:58:07;;;;;;;17.53;13.13;;;3.20;99.90;;;;;;5034085;28;20190;-79
2024/01/07 07:00:34;;;;;;;15.60;11.83;;;3.10;99.90;;;;;;5053669;28;20203;-78
2024/01/07 07:03:02;;;;;;;16.33;12.27;;;3.00;99.90;;;;;;5040860;28;20716;-79
2024/01/07 07:05:29;;;;;;;16.37;12.00;;;3.10;99.90;;;;;;5037731;28;20190;-79
2024/01/07 07:08:04;;;;;;;17.50;12.40;;;3.00;99.90;;;;;;5038326;28;20237;-78
2024/01/07 07:10:32;;;;;;;15.73;12.20;;;2.90;99.90;;;;;;5048776;28;20199;-78
2024/01/07 07:12:59;;;;;;;14.43;11.63;;;2.90;99.90;;;;;;5033806;28;20230;-78
2024/01/07 07:15:28;;;;;;;15.20;11.77;;;3.00;99.90;;;;;;5036028;28;20197;-78
2024/01/07 07:17:56;;;;;;;15.57;11.00;;;2.90;99.90;;;;;;5051150;28;20190;-78
2024/01/07 07:20:23;;;;;;;13.87;11.00;;;2.70;99.90;;;;;;5052740;28;20191;-78
2024/01/07 07:22:51;;;;;;;13.43;10.50;;;2.90;99.90;;;;;;5034088;28;20879;-78
2024/01/07 07:25:19;;;;;;;12.73;10.70;;;2.80;99.90;;;;;;5027455;28;20199;-79
2024/01/07 07:27:46;;;;;;;13.20;10.27;;;2.90;99.90;;;;;;5026933;28;20221;-79
2024/01/07 07:30:14;;;;;;;13.03;10.70;;;2.80;99.90;;;;;;5035318;28;20206;-79
2024/01/07 07:32:44;;;;;;;11.03;9.67;;;2.70;99.90;;;;;;5034909;28;20227;-79
2024/01/07 07:35:11;;;;;;;12.20;9.27;;;2.50;99.90;;;;;;5061848;23;20223;-80
2024/01/07 07:37:39;;;;;;;11.47;8.67;;;2.50;99.90;;;;;;5037450;28;20196;-79
2024/01/07 07:40:07;;;;;;;11.33;8.87;;;2.30;99.90;;;;;;5032093;28;20202;-79
2024/01/07 07:42:35;;;;;;;11.93;9.90;;;2.30;99.90;;;;;;5040809;28;20202;-80
2024/01/07 07:45:03;;;;;;;12.47;9.17;;;2.50;99.90;;;;;;5040663;28;20224;-80
2024/01/07 07:47:30;;;;;;;12.67;10.33;;;2.50;99.90;;;;;;5021505;28;20667;-80
2024/01/07 07:50:00;;;;;;;12.57;9.23;;;2.50;99.90;;;;;;5030810;28;20246;-79
2024/01/07 07:52:28;;;;;;;13.07;9.60;;;2.50;99.90;;;;;;5035851;28;20197;-79
2024/01/07 07:54:55;;;;;;;11.73;9.60;;;2.50;99.90;;;;;;5039516;28;20215;-79
2024/01/07 07:57:25;;;;;;;12.10;9.90;;;2.60;99.90;;;;;;5026576;28;20201;-80
2024/01/07 07:59:52;;;;;;;12.77;10.33;;;2.50;99.90;;;;;;5021684;28;20193;-80
2024/01/07 08:02:22;;;;;;;13.80;11.17;;;2.50;99.90;;;;;;5039850;28;20215;-79
2024/01/07 08:05:24;;;;;;;14.33;11.43;;;2.40;99.90;;;;;;5038805;28;20578;-79
2024/01/07 08:07:51;;;;;;;14.77;10.77;;;2.50;99.90;;;;;;5055021;28;20200;-79
2024/01/07 08:10:19;;;;;;;15.37;10.93;;;2.50;99.90;;;;;;5038107;28;20198;-78
2024/01/07 08:12:47;;;;;;;14.57;10.67;;;2.50;99.90;;;;;;5022173;28;20206;-78
2024/01/07 08:15:33;;;;;;;13.27;10.17;;;2.40;99.90;;;;;;5046172;28;20695;-79
2024/01/07 08:18:00;;;;;;;13.70;10.43;;;2.30;99.90;;;;;;5035119;28;20658;-79
2024/01/07 08:20:29;;;;;;;13.83;10.80;;;2.30;99.90;;;;;;5038685;28;20594;-83
2024/01/07 08:22:56;;;;;;;13.07;9.40;;;2.20;99.90;;;;;;5056028;28;20688;-80
2024/01/07 08:25:24;;;;;;;12.47;9.87;;;2.20;99.90;;;;;;5037043;28;20218;-78
2024/01/07 08:27:51;;;;;;;14.30;10.20;;;2.30;99.90;;;;;;5019410;28;20199;-79
2024/01/07 08:30:19;;;;;;;13.00;9.40;;;2.30;99.90;;;;;;5017994;28;20224;-79
2024/01/07 08:32:46;;;;;;;14.20;10.13;;;2.10;99.90;;;;;;5031981;28;20219;-79
2024/01/07 08:35:14;;;;;;;11.47;9.23;;;2.10;99.90;;;;;;5025498;28;20250;-78
2024/01/07 08:37:43;;;;;;;12.43;9.77;;;2.10;99.90;;;;;;5028417;28;20213;-79
2024/01/07 08:40:13;;;;;;;13.57;9.27;;;2.10;99.90;;;;;;5018782;28;20203;-79
2024/01/07 08:42:40;;;;;;;11.40;9.20;;;2.00;99.90;;;;;;5019060;28;20207;-79
2024/01/07 08:45:09;;;;;;;11.83;9.00;;;2.00;99.90;;;;;;5034692;28;20224;-79
2024/01/07 08:47:36;;;;;;;10.43;8.60;;;2.10;99.90;;;;;;5035326;28;20191;-78
2024/01/07 08:50:05;;;;;;;11.40;8.83;;;1.80;99.90;;;;;;5043812;28;20570;-78
2024/01/07 08:52:35;;;;;;;11.53;8.60;;;1.80;99.90;;;;;;5038552;28;20210;-79
2024/01/07 08:55:05;;;;;;;10.73;9.17;;;1.90;99.90;;;;;;5038366;28;20227;-78
2024/01/07 08:57:33;;;;;;;13.00;9.83;;;1.80;99.90;;;;;;5054684;28;20215;-78
2024/01/07 09:00:00;;;;;;;12.63;9.50;;;2.00;99.90;;;;;;5053440;28;20185;-79
2024/01/07 09:02:28;;;;;;;10.50;9.30;;;2.10;99.90;;;;;;5021317;28;20196;-79
2024/01/07 09:04:55;;;;;;;10.30;8.90;;;2.00;99.90;;;;;;5021665;28;20221;-79
2024/01/07 09:07:24;;;;;;;11.07;9.40;;;2.00;99.90;;;;;;5019236;28;20221;-79
2024/01/07 09:09:52;;;;;;;10.13;8.40;;;2.00;99.90;;;;;;5019526;28;20222;-79
2024/01/07 09:12:21;;;;;;;10.43;8.83;;;2.10;99.90;;;;;;5024476;28;20206;-79
2024/01/07 09:14:48;;;;;;;9.53;8.43;;;2.10;99.90;;;;;;5025737;28;20224;-79
2024/01/07 09:17:18;;;;;;;9.30;8.03;;;2.00;99.90;;;;;;5056279;28;20653;-78
2024/01/07 09:19:46;;;;;;;9.80;8.57;;;1.90;99.90;;;;;;5038948;28;20200;-79
2024/01/07 09:22:13;;;;;;;11.00;8.23;;;1.90;99.90;;;;;;5035706;28;20660;-78
2024/01/07 09:24:41;;;;;;;9.63;7.97;;;1.90;99.90;;;;;;5017649;28;20225;-79
2024/01/07 09:27:08;;;;;;;9.30;7.70;;;1.90;99.90;;;;;;5037925;28;20201;-79
2024/01/07 09:29:37;;;;;;;10.37;8.33;;;1.80;99.90;;;;;;5033467;28;20211;-79
2024/01/07 09:32:05;;;;;;;10.10;7.53;;;1.90;99.90;;;;;;5036217;28;20204;-80
2024/01/07 09:34:32;;;;;;;10.33;8.57;;;1.90;99.90;;;;;;5038090;28;20239;-80
2024/01/07 09:37:00;;;;;;;9.33;7.83;;;2.00;99.90;;;;;;5024418;28;20547;-80
2024/01/07 09:39:28;;;;;;;9.50;7.73;;;2.20;99.90;;;;;;5035243;28;20561;-80
2024/01/07 09:41:55;;;;;;;8.53;7.63;;;2.00;99.90;;;;;;5026359;28;20211;-80
2024/01/07 09:44:23;;;;;;;8.60;7.57;;;1.80;99.90;;;;;;5027429;28;20220;-80
2024/01/07 09:46:53;;;;;;;10.43;8.07;;;1.70;99.90;;;;;;5036179;28;20195;-79
2024/01/07 09:49:20;;;;;;;12.20;7.63;;;1.80;99.90;;;;;;5024603;28;20213;-79
2024/01/07 09:51:51;;;;;;;8.83;7.37;;;2.00;99.90;;;;;;5026759;28;20198;-80
2024/01/07 09:54:20;;;;;;;9.63;7.73;;;2.10;99.90;;;;;;5053731;28;20218;-79
2024/01/07 09:56:53;;;;;;;11.80;7.17;;;1.90;99.90;;;;;;5029254;28;20204;-79
2024/01/07 09:59:21;;;;;;;8.77;7.13;;;1.90;99.90;;;;;;5034166;28;20191;-79
2024/01/07 10:01:50;;;;;;;11.07;7.60;;;1.70;99.90;;;;;;5029851;28;20223;-80
2024/01/07 10:04:27;;;;;;;9.33;7.10;;;1.70;99.90;;;;;;5026728;28;20210;-80
2024/01/07 10:06:54;;;;;;;8.27;6.93;;;1.70;99.90;;;;;;5021684;28;20202;-80
2024/01/07 10:09:25;;;;;;;8.83;6.83;;;1.90;99.90;;;;;;5035139;28;20225;-80
2024/01/07 10:12:12;;;;;;;10.30;7.03;;;1.90;99.90;;;;;;5022334;28;20210;-79
2024/01/07 10:14:40;;;;;;;8.03;6.77;;;1.70;99.90;;;;;;5047041;28;20229;-80
2024/01/07 10:17:18;;;;;;;9.30;6.30;;;1.70;99.90;;;;;;5017559;28;20209;-79
2024/01/07 10:19:47;;;;;;;9.87;6.63;;;1.90;99.90;;;;;;5033272;28;20198;-79
2024/01/07 10:22:15;;;;;;;9.30;6.47;;;2.00;99.90;;;;;;5051959;28;20200;-79
2024/01/07 10:24:44;;;;;;;7.73;5.83;;;1.90;99.90;;;;;;5053373;28;20590;-79
2024/01/07 10:27:13;;;;;;;7.80;6.30;;;1.80;99.90;;;;;;5032982;28;20207;-79
2024/01/07 10:29:40;;;;;;;6.63;5.97;;;1.80;99.90;;;;;;5027230;28;20226;-79
2024/01/07 10:32:08;;;;;;;6.50;5.50;;;2.00;99.90;;;;;;5032695;28;20208;-79
2024/01/07 10:34:37;;;;;;;6.20;5.40;;;1.80;99.90;;;;;;5052060;28;20229;-79
2024/01/07 10:37:06;;;;;;;5.93;5.33;;;1.90;99.90;;;;;;5024910;28;20202;-79
2024/01/07 10:39:33;;;;;;;6.87;5.67;;;2.10;99.90;;;;;;5021351;28;20198;-79
2024/01/07 10:42:02;;;;;;;6.23;5.33;;;1.90;99.90;;;;;;5030027;28;20202;-79
2024/01/07 10:44:31;;;;;;;7.23;5.27;;;1.90;99.90;;;;;;5040644;28;20224;-79
2024/01/07 10:47:00;;;;;;;5.93;4.90;;;1.90;99.90;;;;;;5050479;28;20206;-80
2024/01/07 10:49:29;;;;;;;6.70;4.70;;;1.80;99.90;;;;;;5027432;28;20232;-79
2024/01/07 10:52:06;;;;;;;5.73;4.90;;;1.90;99.90;;;;;;5042455;28;20209;-81
2024/01/07 10:54:45;;;;;;;6.13;4.73;;;1.80;99.90;;;;;;5041353;28;20216;-81
2024/01/07 10:57:21;;;;;;;5.93;5.03;;;1.60;99.90;;;;;;5035357;28;20607;-80
2024/01/07 10:59:49;;;;;;;6.13;5.03;;;1.50;99.90;;;;;;5022369;28;20201;-81
2024/01/07 11:02:17;;;;;;;6.80;5.20;;;1.70;99.90;;;;;;5022879;28;20206;-81
2024/01/07 11:04:52;;;;;;;6.83;5.13;;;1.80;99.90;;;;;;5018822;28;20221;-80
2024/01/07 11:07:37;;;;;;;5.63;4.73;;;1.80;99.90;;;;;;5017150;28;20188;-80
2024/01/07 11:10:11;;;;;;;7.27;5.00;;;1.90;99.90;;;;;;5029460;28;20217;-80
2024/01/07 11:12:38;;;;;;;6.20;4.87;;;1.80;99.90;;;;;;5024737;28;20198;-80
2024/01/07 11:15:06;;;;;;;5.97;4.67;;;1.80;99.90;;;;;;5024328;28;20681;-80
2024/01/07 11:17:45;;;;;;;6.27;4.77;;;1.70;99.90;;;;;;5026661;28;20565;-79
2024/01/07 11:20:21;;;;;;;5.87;4.60;;;1.80;99.90;;;;;;5056076;28;20191;-80
2024/01/07 11:22:50;;;;;;;6.83;6.13;;;1.80;99.90;;;;;;5024068;28;20220;-80
2024/01/07 11:25:31;;;;;;;5.63;4.57;;;1.80;99.90;;;;;;5029100;28;20226;-80
2024/01/07 11:27:59;;;;;;;5.63;4.40;;;1.90;99.90;;;;;;5025496;28;20572;-80
2024/01/07 11:30:27;;;;;;;4.63;4.23;;;1.70;99.90;;;;;;5027254;28;20223;-80
2024/01/07 11:33:02;;;;;;;5.33;4.00;;;1.60;99.90;;;;;;5036782;28;20199;-81
2024/01/07 11:35:54;;;;;;;5.30;4.07;;;1.70;99.90;;;;;;5036760;28;20225;-80
2024/01/07 11:38:23;;;;;;;4.20;3.70;;;1.70;99.90;;;;;;5029089;28;20289;-80
2024/01/07 11:40:52;;;;;;;5.60;4.30;;;1.70;99.90;;;;;;5052908;28;20203;-80
2024/01/07 11:43:20;;;;;;;4.60;3.97;;;1.30;99.90;;;;;;5031103;28;20210;-80
2024/01/07 11:45:54;;;;;;;4.90;4.00;;;1.40;99.90;;;;;;5034130;28;20228;-80
2024/01/07 11:48:21;;;;;;;5.00;3.67;;;1.60;99.90;;;;;;5029754;28;20595;-80
2024/01/07 11:50:49;;;;;;;6.13;4.10;;;1.40;99.90;;;;;;5026312;28;20217;-80
2024/01/07 11:53:17;;;;;;;5.53;4.27;;;1.60;99.90;;;;;;5027145;28;20209;-80
2024/01/07 11:55:46;;;;;;;6.47;4.90;;;1.50;99.90;;;;;;5030441;28;20242;-80
2024/01/07 11:58:13;;;;;;;5.40;4.37;;;1.50;99.90;;;;;;5047971;28;20197;-80
2024/01/07 12:00:41;;;;;;;5.53;4.73;;;1.30;99.90;;;;;;5041028;28;20556;-80
2024/01/07 12:03:09;;;;;;;5.40;4.40;;;1.00;99.90;;;;;;5055272;28;20689;-80
2024/01/07 12:05:36;;;;;;;5.67;4.83;;;1.10;99.90;;;;;;5044348;28;20213;-81
2024/01/07 12:08:05;;;;;;;5.67;3.97;;;1.20;99.90;;;;;;5043376;28;20554;-80
2024/01/07 12:10:33;;;;;;;5.80;4.40;;;1.20;99.90;;;;;;5038098;28;20218;-80
2024/01/07 12:13:03;;;;;;;4.70;3.90;;;1.10;99.90;;;;;;5029441;28;20204;-80
2024/01/07 12:15:32;;;;;;;4.50;3.53;;;1.10;99.90;;;;;;5036425;28;20215;-80
2024/01/07 12:18:01;;;;;;;4.73;4.03;;;0.80;99.90;;;;;;5031244;28;20206;-80
2024/01/07 12:20:29;;;;;;;3.90;3.30;;;0.80;99.90;;;;;;5030037;28;20196;-80
2024/01/07 12:23:13;;;;;;;4.13;3.63;;;0.70;99.90;;;;;;5018827;28;20199;-80
2024/01/07 12:25:40;;;;;;;3.40;3.10;;;0.90;99.90;;;;;;5045541;28;20205;-80
2024/01/07 12:28:11;;;;;;;4.63;3.90;;;1.00;99.90;;;;;;5037563;28;20211;-80
2024/01/07 12:30:38;;;;;;;6.37;3.60;;;1.00;99.90;;;;;;5019524;28;20676;-80
2024/01/07 12:33:06;;;;;;;4.33;3.93;;;1.10;99.90;;;;;;5037375;28;20194;-80
2024/01/07 12:35:35;;;;;;;4.67;4.00;;;1.10;99.90;;;;;;5028851;28;20245;-81
2024/01/07 12:38:24;;;;;;;4.87;4.17;;;0.90;99.90;;;;;;5027813;28;20206;-80
2024/01/07 12:40:52;;;;;;;4.63;3.77;;;0.70;99.90;;;;;;5020898;28;20569;-80
2024/01/07 12:43:21;;;;;;;6.50;4.70;;;0.80;99.90;;;;;;5037357;28;20676;-80
2024/01/07 12:45:49;;;;;;;4.80;4.23;;;0.80;99.90;;;;;;5027100;28;20220;-80
2024/01/07 12:48:16;;;;;;;5.87;4.30;;;0.80;99.90;;;;;;5020703;28;20556;-80
2024/01/07 12:55:05;;;;;;;4.97;3.90;;;1.00;99.90;;;;;;5036835;28;20565;-79